createdAt,value
2018-12-12T00:01:41.467Z,11.77
2018-12-12T00:04:11.072Z,10.43
2018-12-12T00:06:39.474Z,12.37
2018-12-12T00:09:07.943Z,12.90
2018-12-12T00:11:36.230Z,11.47
2018-12-12T00:14:04.558Z,12.17
2018-12-12T00:16:32.863Z,10.90
2018-12-12T00:19:01.167Z,10.97
2018-12-12T00:21:29.408Z,11.70
2018-12-12T00:23:57.650Z,11.20
2018-12-12T00:26:26.031Z,11.80
2018-12-12T00:28:55.309Z,11.87
2018-12-12T00:31:23.568Z,11.77
2018-12-12T00:33:51.865Z,10.43
2018-12-12T00:36:20.155Z,11.43
2018-12-12T00:38:48.366Z,11.73
2018-12-12T00:41:16.686Z,11.47
2018-12-12T00:43:44.958Z,12.93
2018-12-12T00:46:13.242Z,11.43
2018-12-12T00:48:41.475Z,13.33
2018-12-12T00:51:09.710Z,12.70
2018-12-12T00:53:38.179Z,13.67
2018-12-12T00:56:06.435Z,13.17
2018-12-12T00:58:34.725Z,13.97
2018-12-12T01:01:02.922Z,13.17
2018-12-12T01:03:31.157Z,14.30
2018-12-12T01:05:59.606Z,13.33
2018-12-12T01:08:27.849Z,15.13
2018-12-12T01:11:01.362Z,13.80
2018-12-12T01:13:29.590Z,15.27
2018-12-12T01:15:57.817Z,13.13
2018-12-12T01:18:27.086Z,14.63
2018-12-12T01:20:55.467Z,13.60
2018-12-12T01:23:23.678Z,14.53
2018-12-12T01:25:51.937Z,13.77
2018-12-12T01:28:20.190Z,14.23
2018-12-12T01:30:48.446Z,14.07
2018-12-12T01:33:16.730Z,13.17
2018-12-12T01:35:45.196Z,13.60
2018-12-12T01:38:13.506Z,14.87
2018-12-12T01:40:41.816Z,13.90
2018-12-12T01:43:10.155Z,14.17
2018-12-12T01:45:38.399Z,16.57
2018-12-12T01:48:06.690Z,16.03
2018-12-12T01:50:35.028Z,16.83
2018-12-12T01:53:04.101Z,14.47
2018-12-12T01:55:32.494Z,17.67
2018-12-12T01:58:00.695Z,14.67
2018-12-12T02:00:29.027Z,12.43
2018-12-12T02:02:57.360Z,16.37
2018-12-12T02:05:25.774Z,14.83
2018-12-12T02:08:00.659Z,13.93
2018-12-12T02:10:28.874Z,14.23
2018-12-12T02:13:08.840Z,16.27
2018-12-12T02:15:37.119Z,15.47
2018-12-12T02:18:05.315Z,15.20
2018-12-12T02:20:33.540Z,14.87
2018-12-12T02:23:01.763Z,15.70
2018-12-12T02:25:30.047Z,14.67
2018-12-12T02:27:58.305Z,15.00
2018-12-12T02:30:26.691Z,18.40
2018-12-12T02:32:54.923Z,16.17
2018-12-12T02:35:23.267Z,17.80
2018-12-12T02:37:51.578Z,18.73
2018-12-12T02:40:19.983Z,19.33
2018-12-12T02:42:48.266Z,18.63
2018-12-12T02:45:16.566Z,17.63
2018-12-12T02:47:44.877Z,15.67
2018-12-12T02:50:13.387Z,16.13
2018-12-12T02:52:41.693Z,16.90
2018-12-12T02:55:13.771Z,16.67
2018-12-12T02:57:42.099Z,17.73
2018-12-12T03:00:10.435Z,17.80
2018-12-12T03:02:38.699Z,16.33
2018-12-12T03:05:07.133Z,16.07
2018-12-12T03:07:35.385Z,18.07
2018-12-12T03:10:04.182Z,15.60
2018-12-12T03:12:32.411Z,18.53
2018-12-12T03:15:00.614Z,17.63
2018-12-12T03:17:28.832Z,16.63
2018-12-12T03:19:57.136Z,18.03
2018-12-12T03:22:25.781Z,17.70
2018-12-12T03:24:53.987Z,17.50
2018-12-12T03:27:22.183Z,17.60
2018-12-12T03:29:51.022Z,20.13
2018-12-12T03:32:19.314Z,18.23
2018-12-12T03:34:47.613Z,17.00
2018-12-12T03:37:15.944Z,19.17
2018-12-12T03:39:44.164Z,18.97
2018-12-12T03:42:12.657Z,18.17
2018-12-12T03:44:40.882Z,19.63
2018-12-12T03:47:09.181Z,19.27
2018-12-12T03:49:37.499Z,18.50
2018-12-12T03:52:05.930Z,18.17
2018-12-12T03:54:34.686Z,18.20
2018-12-12T03:57:02.887Z,21.40
2018-12-12T03:59:31.164Z,18.23
2018-12-12T04:01:59.595Z,20.03
2018-12-12T04:04:27.887Z,20.97
2018-12-12T04:06:56.318Z,19.97
2018-12-12T04:09:24.599Z,20.93
2018-12-12T04:11:52.780Z,19.97
2018-12-12T04:14:20.999Z,21.60
2018-12-12T04:16:49.266Z,19.23
2018-12-12T04:19:17.774Z,20.10
2018-12-12T04:21:46.022Z,18.33
2018-12-12T04:24:14.910Z,18.93
2018-12-12T04:26:43.197Z,19.73
2018-12-12T04:29:11.507Z,20.43
2018-12-12T04:31:39.753Z,19.33
2018-12-12T04:34:07.952Z,19.83
2018-12-12T04:36:36.190Z,19.33
2018-12-12T04:39:10.683Z,20.70
2018-12-12T04:41:48.091Z,21.33
2018-12-12T04:44:28.160Z,20.17
2018-12-12T04:46:58.331Z,19.03
2018-12-12T04:49:30.342Z,19.73
2018-12-12T04:52:00.472Z,22.43
2018-12-12T04:54:41.330Z,21.27
2018-12-12T04:57:22.372Z,19.93
2018-12-12T04:59:56.698Z,21.57
2018-12-12T05:02:28.063Z,22.80
2018-12-12T05:05:08.633Z,21.10
2018-12-12T05:07:48.897Z,21.80
2018-12-12T05:10:19.119Z,21.27
2018-12-12T05:12:50.574Z,21.20
2018-12-12T05:15:22.088Z,20.27
2018-12-12T05:17:54.220Z,22.40
2018-12-12T05:20:25.502Z,23.20
2018-12-12T05:23:05.879Z,19.70
2018-12-12T05:25:38.052Z,19.20
2018-12-12T05:28:18.222Z,20.40
2018-12-12T05:33:43.581Z,20.70
2018-12-12T05:36:11.779Z,20.37
2018-12-12T05:38:40.012Z,19.67
2018-12-12T05:41:08.223Z,20.40
2018-12-12T05:43:36.487Z,19.13
2018-12-12T05:46:04.775Z,20.63
2018-12-12T05:48:33.110Z,20.03
2018-12-12T05:51:05.110Z,20.47
2018-12-12T05:53:33.408Z,20.33
2018-12-12T05:56:02.648Z,20.27
2018-12-12T05:58:30.996Z,21.23
2018-12-12T06:01:02.779Z,19.73
2018-12-12T06:03:31.075Z,21.07
2018-12-12T06:05:59.382Z,19.17
2018-12-12T06:08:45.862Z,21.17
2018-12-12T06:11:16.164Z,21.10
2018-12-12T06:13:44.559Z,23.33
2018-12-12T06:16:12.783Z,21.87
2018-12-12T06:18:42.079Z,23.20
2018-12-12T06:24:19.395Z,22.90
2018-12-12T06:26:53.883Z,21.03
2018-12-12T06:29:28.389Z,21.53
2018-12-12T06:32:09.046Z,23.93
2018-12-12T06:34:45.311Z,22.37
2018-12-12T06:37:25.671Z,23.43
2018-12-12T06:39:55.876Z,30.77
2018-12-12T06:42:27.530Z,22.77
2018-12-12T06:45:01.700Z,23.65
2018-12-12T06:50:31.050Z,19.83
2018-12-12T06:53:08.959Z,21.03
2018-12-12T06:55:44.694Z,23.00
2018-12-12T07:01:17.741Z,19.83
2018-12-12T07:03:49.067Z,23.10
2018-12-12T07:06:19.250Z,21.40
2018-12-12T07:08:59.719Z,23.83
2018-12-12T07:11:29.135Z,22.20
2018-12-12T07:19:12.298Z,23.10
2018-12-12T07:21:46.639Z,22.83
2018-12-12T07:24:27.218Z,23.33
2018-12-12T07:29:56.267Z,24.73
2018-12-12T07:32:28.195Z,24.23
2018-12-12T07:35:00.290Z,24.27
2018-12-12T07:37:34.498Z,23.00
2018-12-12T07:40:09.194Z,24.40
2018-12-12T07:42:40.675Z,24.40
2018-12-12T07:45:12.931Z,23.40
2018-12-12T07:47:45.055Z,23.90
2018-12-12T07:50:17.298Z,22.47
2018-12-12T07:52:47.559Z,22.47
2018-12-12T07:55:19.636Z,21.00
2018-12-12T07:57:51.774Z,22.23
2018-12-12T08:00:32.307Z,24.77
2018-12-12T08:03:06.364Z,23.90
2018-12-12T08:05:37.476Z,22.80
2018-12-12T08:08:10.138Z,21.80
2018-12-12T08:10:48.223Z,23.23
2018-12-12T08:13:22.844Z,23.50
2018-12-12T08:16:02.771Z,21.80
2018-12-12T08:21:09.834Z,21.37
2018-12-12T08:23:41.569Z,21.87
2018-12-12T08:26:15.283Z,22.17
2018-12-12T08:28:52.665Z,23.43
2018-12-12T08:31:21.990Z,23.00
2018-12-12T08:33:56.603Z,21.10
2018-12-12T08:36:32.767Z,22.90
2018-12-12T08:39:03.519Z,20.63
2018-12-12T08:41:35.193Z,21.03
2018-12-12T08:44:09.566Z,21.83
2018-12-12T08:46:41.321Z,20.00
2018-12-12T08:49:12.577Z,19.07
2018-12-12T08:51:43.896Z,19.17
2018-12-12T08:54:16.059Z,20.40
2018-12-12T08:56:48.125Z,18.67
2018-12-12T08:59:22.620Z,19.63
2018-12-12T09:01:56.472Z,19.67
2018-12-12T09:04:33.013Z,19.43
2018-12-12T09:07:09.062Z,19.67
2018-12-12T09:09:43.335Z,18.83
2018-12-12T09:12:17.306Z,19.53
2018-12-12T09:14:49.170Z,19.03
2018-12-12T09:17:27.747Z,17.27
2018-12-12T09:20:12.245Z,16.70
2018-12-12T09:22:49.912Z,17.90
2018-12-12T09:25:28.074Z,17.53
2018-12-12T09:28:02.242Z,16.83
2018-12-12T09:30:42.739Z,17.10
2018-12-12T09:33:17.342Z,19.40
2018-12-12T09:35:48.612Z,17.23
2018-12-12T09:38:20.050Z,17.00
2018-12-12T09:41:01.243Z,17.10
2018-12-12T09:43:43.663Z,16.00
2018-12-12T09:46:15.703Z,18.13
2018-12-12T09:48:48.577Z,17.50
2018-12-12T09:51:25.480Z,16.43
2018-12-12T09:53:57.768Z,17.90
2018-12-12T09:56:38.728Z,16.97
2018-12-12T09:59:17.437Z,15.73
2018-12-12T10:01:55.411Z,14.83
2018-12-12T10:04:27.618Z,15.23
2018-12-12T10:06:57.310Z,17.77
2018-12-12T10:09:28.935Z,16.60
2018-12-12T10:11:59.097Z,14.33
2018-12-12T10:14:31.195Z,13.63
2018-12-12T10:17:07.626Z,14.10
2018-12-12T10:19:48.160Z,13.13
2018-12-12T10:22:19.911Z,13.60
2018-12-12T10:25:02.221Z,14.03
2018-12-12T10:27:34.477Z,14.70
2018-12-12T10:30:06.760Z,13.70
2018-12-12T10:32:41.066Z,13.10
2018-12-12T10:35:11.033Z,12.93
2018-12-12T10:37:42.339Z,13.27
2018-12-12T10:43:13.796Z,14.40
2018-12-12T10:45:45.286Z,12.83
2018-12-12T10:48:21.875Z,14.13
2018-12-12T10:50:53.480Z,13.70
2018-12-12T10:53:28.078Z,15.37
2018-12-12T10:56:08.677Z,15.13
2018-12-12T10:58:41.027Z,12.97
2018-12-12T11:01:20.382Z,12.00
2018-12-12T11:03:53.706Z,13.27
2018-12-12T11:06:23.752Z,13.90
2018-12-12T11:08:55.047Z,11.27
2018-12-12T11:14:19.416Z,12.70
2018-12-12T11:16:53.106Z,13.33
2018-12-12T11:19:21.322Z,11.70
2018-12-12T11:22:13.894Z,12.57
2018-12-12T11:27:26.732Z,13.17
2018-12-12T11:30:00.423Z,12.80
2018-12-12T11:32:38.394Z,12.87
2018-12-12T11:35:12.384Z,13.30
2018-12-12T11:37:46.583Z,13.47
2018-12-12T11:40:18.377Z,13.63
2018-12-12T11:42:50.247Z,14.37
2018-12-12T11:45:26.090Z,14.77
2018-12-12T11:47:59.659Z,14.60
2018-12-12T11:50:31.747Z,13.30
2018-12-12T11:56:15.743Z,13.33
2018-12-12T11:58:47.716Z,13.40
2018-12-12T12:01:17.835Z,13.87
2018-12-12T12:03:49.362Z,13.57
2018-12-12T12:06:23.468Z,14.83
2018-12-12T12:08:55.205Z,14.73
2018-12-12T12:11:29.654Z,13.60
2018-12-12T12:14:09.826Z,14.60
2018-12-12T12:16:49.680Z,12.80
2018-12-12T12:19:21.451Z,14.97
2018-12-12T12:21:59.692Z,12.83
2018-12-12T12:33:29.168Z,12.07
2018-12-12T12:36:00.736Z,12.13
2018-12-12T12:38:35.797Z,12.43
2018-12-12T12:41:10.965Z,12.83
2018-12-12T12:46:56.842Z,13.63
2018-12-12T12:55:41.034Z,14.20
2018-12-12T12:58:13.203Z,14.03
2018-12-12T13:10:11.348Z,14.03
2018-12-12T13:15:39.526Z,14.37
2018-12-12T13:21:21.605Z,14.50
2018-12-12T13:23:49.855Z,12.83
2018-12-12T13:26:26.894Z,14.03
2018-12-12T13:29:03.207Z,14.43
2018-12-12T13:31:32.577Z,14.77
2018-12-12T13:34:00.990Z,14.17
2018-12-12T13:36:29.538Z,13.63
2018-12-12T13:39:10.187Z,13.27
2018-12-12T13:41:54.901Z,14.00
2018-12-12T13:44:29.020Z,12.30
2018-12-12T13:46:57.234Z,13.20
2018-12-12T13:49:38.731Z,14.63
2018-12-12T13:52:07.015Z,12.47
2018-12-12T13:54:41.027Z,13.43
2018-12-12T14:00:18.977Z,13.80
2018-12-12T14:02:55.012Z,14.23
2018-12-12T14:05:33.427Z,13.20
2018-12-12T14:08:11.234Z,20.40
2018-12-12T14:10:52.109Z,14.63
2018-12-12T14:13:23.736Z,14.67
2018-12-12T14:18:55.775Z,14.70
2018-12-12T14:30:55.215Z,15.73
2018-12-12T14:51:57.964Z,16.13
2018-12-12T15:00:51.513Z,15.73
2018-12-12T15:03:36.036Z,15.67
2018-12-12T15:06:17.016Z,15.43
2018-12-12T15:09:00.736Z,15.17
2018-12-12T15:11:33.171Z,17.23
2018-12-12T15:14:13.647Z,14.80
2018-12-12T15:16:54.515Z,15.47
2018-12-12T15:19:43.501Z,16.80
2018-12-12T15:22:20.018Z,15.73
2018-12-12T15:24:57.930Z,17.00
2018-12-12T15:27:31.819Z,15.40
2018-12-12T15:30:04.087Z,16.40
2018-12-12T15:32:51.087Z,16.77
2018-12-12T15:35:27.421Z,15.43
2018-12-12T15:38:05.734Z,15.63
2018-12-12T15:40:44.278Z,16.37
2018-12-12T15:43:22.465Z,15.50
2018-12-12T15:46:00.689Z,15.97
2018-12-12T15:48:36.907Z,16.63
2018-12-12T15:57:11.454Z,19.00
2018-12-12T15:59:56.250Z,17.77
2018-12-12T16:02:32.873Z,15.47
2018-12-12T16:05:09.284Z,15.67
2018-12-12T16:07:45.456Z,16.90
2018-12-12T16:10:21.755Z,18.27
2018-12-12T16:13:00.131Z,19.90
2018-12-12T16:15:38.088Z,19.47
2018-12-12T16:18:10.831Z,20.20
2018-12-12T16:23:47.865Z,18.43
2018-12-12T16:29:26.945Z,18.20
2018-12-12T16:32:04.916Z,19.43
2018-12-12T16:37:52.345Z,17.03
2018-12-12T16:40:30.106Z,16.47
2018-12-12T16:43:06.405Z,16.63
2018-12-12T16:45:42.581Z,16.47
2018-12-12T16:48:18.716Z,17.53
2018-12-12T16:50:55.100Z,19.57
2018-12-12T16:53:31.310Z,18.90
2018-12-12T16:56:03.055Z,17.07
2018-12-12T16:58:48.791Z,18.67
2018-12-12T17:01:18.637Z,17.23
2018-12-12T17:06:51.380Z,17.60
2018-12-12T17:09:23.536Z,15.27
2018-12-12T17:11:58.071Z,15.37
2018-12-12T17:14:29.695Z,15.70
2018-12-12T17:17:01.956Z,14.97
2018-12-12T17:19:34.119Z,15.30
2018-12-12T17:22:06.286Z,14.57
2018-12-12T17:24:40.062Z,15.53
2018-12-12T17:27:11.930Z,15.00
2018-12-12T17:29:43.843Z,14.13
2018-12-12T17:32:16.459Z,15.40
2018-12-12T17:34:51.136Z,16.07
2018-12-12T17:37:26.627Z,16.07
2018-12-12T17:40:00.787Z,14.80
2018-12-12T17:42:46.400Z,16.13
2018-12-12T17:45:21.970Z,18.98
2018-12-12T17:51:01.225Z,19.33
2018-12-12T17:59:53.049Z,16.10
2018-12-12T18:02:29.489Z,15.80
2018-12-12T18:05:05.881Z,16.47
2018-12-12T18:07:48.004Z,17.37
2018-12-12T18:10:24.978Z,16.90
2018-12-12T18:16:08.667Z,16.30
2018-12-12T18:21:39.895Z,14.93
2018-12-12T18:24:09.186Z,18.90
2018-12-12T18:26:37.564Z,18.10
2018-12-12T18:29:06.908Z,18.70
2018-12-12T18:31:35.263Z,19.90
2018-12-12T18:34:07.192Z,18.40
2018-12-12T18:36:39.816Z,15.90
2018-12-12T18:39:08.356Z,16.83
2018-12-12T18:41:36.626Z,16.57
2018-12-12T18:44:04.920Z,16.03
2018-12-12T18:46:33.370Z,20.13
2018-12-12T18:49:01.852Z,18.80
2018-12-12T18:51:30.201Z,18.90
2018-12-12T18:53:58.455Z,16.73
2018-12-12T18:56:26.751Z,18.23
2018-12-12T18:58:55.158Z,16.83
2018-12-12T19:01:23.503Z,17.07
2018-12-12T19:03:52.070Z,15.97
2018-12-12T19:06:20.375Z,15.23
2018-12-12T19:08:48.795Z,15.37
2018-12-12T19:11:18.202Z,16.37
2018-12-12T19:13:46.641Z,15.77
2018-12-12T19:16:20.515Z,17.67
2018-12-12T19:18:48.850Z,15.17
2018-12-12T19:21:17.246Z,15.93
2018-12-12T19:23:45.624Z,15.53
2018-12-12T19:26:19.464Z,16.50
2018-12-12T19:28:49.812Z,15.97
2018-12-12T19:31:19.410Z,16.00
2018-12-12T19:33:53.480Z,15.03
2018-12-12T19:39:28.817Z,16.20
2018-12-12T19:42:01.086Z,16.37
2018-12-12T19:47:41.085Z,16.10
2018-12-12T19:50:18.310Z,16.07
2018-12-12T19:55:47.034Z,16.57
2018-12-12T19:58:19.505Z,18.77
2018-12-12T20:01:06.274Z,19.00
2018-12-12T20:09:51.671Z,18.23
2018-12-12T20:21:21.891Z,21.57
2018-12-12T20:26:54.840Z,18.70
2018-12-12T20:29:26.214Z,18.83
2018-12-12T20:32:00.531Z,16.83
2018-12-12T20:34:47.299Z,16.27
2018-12-12T20:37:26.566Z,21.15
2018-12-12T20:40:13.594Z,16.90
2018-12-12T20:42:59.299Z,16.70
2018-12-12T20:57:21.471Z,16.47
2018-12-12T20:59:50.322Z,15.77
2018-12-12T21:02:21.750Z,16.30
2018-12-12T21:04:51.182Z,17.77
2018-12-12T21:07:19.387Z,17.13
2018-12-12T21:09:47.632Z,17.00
2018-12-12T21:12:15.870Z,17.70
2018-12-12T21:14:44.063Z,17.77
2018-12-12T21:17:12.458Z,16.70
2018-12-12T21:19:40.732Z,16.27
2018-12-12T21:22:08.999Z,16.87
2018-12-12T21:24:37.258Z,15.53
2018-12-12T21:27:06.694Z,16.50
2018-12-12T21:29:36.216Z,16.50
2018-12-12T21:32:04.603Z,16.10
2018-12-12T21:34:32.860Z,18.33
2018-12-12T21:37:01.143Z,17.93
2018-12-12T21:39:29.371Z,17.07
2018-12-12T21:41:57.667Z,16.67
2018-12-12T21:44:25.958Z,17.13
2018-12-12T21:46:55.861Z,16.13
2018-12-12T21:49:24.132Z,17.13
2018-12-12T21:51:52.426Z,17.80
2018-12-12T21:54:20.643Z,17.10
2018-12-12T21:56:48.822Z,17.73
2018-12-12T21:59:17.377Z,17.03
2018-12-12T22:01:45.651Z,18.07
2018-12-12T22:04:13.834Z,16.53
2018-12-12T22:06:42.054Z,17.47
2018-12-12T22:09:11.774Z,17.63
2018-12-12T22:11:41.059Z,16.93
2018-12-12T22:14:09.270Z,18.73
2018-12-12T22:16:37.471Z,17.33
2018-12-12T22:19:05.753Z,17.23
2018-12-12T22:21:33.966Z,17.27
2018-12-12T22:24:02.188Z,16.53
2018-12-12T22:26:30.413Z,18.10
2018-12-12T22:28:58.668Z,17.63
2018-12-12T22:31:26.870Z,17.30
2018-12-12T22:33:55.210Z,17.77
2018-12-12T22:36:23.403Z,16.80
2018-12-12T22:38:51.700Z,15.10
2018-12-12T22:41:19.973Z,16.13
2018-12-12T22:43:48.394Z,16.83
2018-12-12T22:46:16.603Z,16.60
2018-12-12T22:48:44.855Z,15.40
2018-12-12T22:51:13.078Z,17.43
2018-12-12T22:53:41.412Z,15.73
2018-12-12T22:56:09.635Z,16.47
2018-12-12T22:58:37.828Z,16.80
2018-12-12T23:01:10.362Z,16.30
2018-12-12T23:03:39.740Z,16.67
2018-12-12T23:06:08.236Z,16.63
2018-12-12T23:08:36.531Z,17.63
2018-12-12T23:11:04.844Z,16.43
2018-12-12T23:13:33.020Z,17.10
2018-12-12T23:16:01.373Z,16.60
2018-12-12T23:18:29.643Z,18.20
2018-12-12T23:20:58.066Z,16.47
2018-12-12T23:23:26.439Z,16.53
2018-12-12T23:25:54.622Z,16.57
2018-12-12T23:28:22.835Z,16.67
2018-12-12T23:30:51.016Z,17.27
2018-12-12T23:33:19.309Z,16.27
2018-12-12T23:35:47.478Z,15.73
2018-12-12T23:38:15.662Z,15.00
2018-12-12T23:40:43.851Z,15.47
2018-12-12T23:43:12.043Z,15.97
2018-12-12T23:45:40.254Z,15.60
2018-12-12T23:48:08.462Z,15.43
2018-12-12T23:50:36.655Z,15.13
2018-12-12T23:53:04.847Z,15.37
2018-12-12T23:55:33.068Z,14.83
2018-12-12T23:58:02.135Z,14.57
